Arbor Lodge, OR

2:36 PM PDT on May 25, 2015 (GMT -0700)
Kenton | | Change Station
CLOSE
Current Station
Personal Weather Station
Location: Portland, OR
Elevation: 116 ft
Nearby Weather Stations

Elev 116 ft 45.58 °N, 122.70 °W | Updated 1 minute ago

Overcast
Overcast
63.0 °F
Feels Like 63.0 °F
N
0.0
Wind Variable Wind from NNE
Gusts 7.0 mph

Today
High -- | Low -- °F
--% Chance of Precip.
Yesterday
High -- | Low -- °F
Precip. -- in
5:30 AM 8:45 PM
First Quarter, 52% visible
Pressure 30.04 in
Visibility 10.0 miles
Clouds Overcast 3000 ft
Dew Point 51 °F
Humidity 65%
Rainfall 0.00 in
Snow Depth Not available.
UV 3 out of 12
Pollen 7.30 out of 12
Air Quality Not available.
Flu Activity No Activity
METAR KVUO 252053Z AUTO 26005KT 10SM OVC030 16/08 A3004 RMK AO2 SLP173 T01560083 58002

More Conditions Fewer Conditions

Pressure 30.04 in
Visibility 10.0 miles
Clouds Overcast 3000 ft
Dew Point 51 °F
Humidity 65%
Rainfall 0.00 in
Snow Depth Not available.
UV 3 out of 12
Pollen 7.30 out of 12
Air Quality Not available.
Flu Activity No Activity
METAR KVUO 252053Z AUTO 26005KT 10SM OVC030 16/08 A3004 RMK AO2 SLP173 T01560083 58002

More Conditions Fewer Conditions

10-Day Weather Forecast

Almanac

Astronomy

May. 25, 2015 Rise Set
Actual Time
Civil Twilight
Nautical Twilight
Astronomical Twilight
Moon
Length of Visible Light
Length of Day
Tomorrow will be .
, % of the Moon is Illuminated

Today's Extremes

State Highs State Lows

Community

WunderPhotos

Upload Photos

1,824,139 photos uploaded!

WunderBlogs® & News

Nearby

Air Quality

  Air Quality AQ Index Pollutant
Not available.

Snow Depth

Station Depth Elevation

Earthquake Activity

City Distance Mag. Time & Date
Minimum magnitude displayed is 2.5.

Coastal Water Temperatures

Place Temperature

Stations

Nearby Weather Stations

Station Location Temp. Windchill Dew Point Humidity Wind Precip. Elev Updated Type